Time;durP1;ratioP1;P1;durP2;ratioP2;P2;SDS_P1;SDS_P2;PMS_P1;PMS_P2;Temp;Humidity;BMP_temperature;BMP_pressure;BME280_temperature;BME280_humidity;BME280_pressure;Samples;Min_cycle;Max_cycle;Signal;HPM_P1;HPM_P2
2023/09/02 00:00:56;;;;;;;0.52;0.40;;;;;;;16.06;100.00;101716.94;5072176;28;20078;-48
2023/09/02 00:03:22;;;;;;;0.40;0.30;;;;;;;16.07;100.00;101708.63;5072278;28;20052;-51
2023/09/02 00:05:47;;;;;;;0.30;0.30;;;;;;;16.12;100.00;101710.75;5071744;28;20040;-46
2023/09/02 00:08:12;;;;;;;0.22;0.22;;;;;;;16.09;100.00;101709.25;5072121;28;20028;-46
2023/09/02 00:10:38;;;;;;;0.20;0.20;;;;;;;16.03;100.00;101707.31;5072388;28;20028;-51
2023/09/02 00:13:03;;;;;;;0.00;0.00;;;;;;;16.05;100.00;101709.84;5072157;28;20028;-50
2023/09/02 00:15:29;;;;;;;0.10;0.10;;;;;;;16.04;100.00;101703.59;5072248;28;20032;-49
2023/09/02 00:17:54;;;;;;;0.20;0.20;;;;;;;16.04;100.00;101694.59;5072296;28;20027;-49
2023/09/02 00:20:21;;;;;;;0.60;0.60;;;;;;;16.03;100.00;101691.03;5071989;28;20178;-48
2023/09/02 00:22:46;;;;;;;0.63;0.52;;;;;;;16.00;100.00;101703.13;5072145;28;20032;-46
2023/09/02 00:25:12;;;;;;;0.35;0.35;;;;;;;16.02;100.00;101706.47;5072312;28;20065;-49
2023/09/02 00:27:37;;;;;;;0.10;0.10;;;;;;;16.04;100.00;101709.00;5072140;28;20033;-49
2023/09/02 00:30:03;;;;;;;0.60;0.60;;;;;;;15.99;100.00;101709.59;5072260;28;20032;-47
2023/09/02 00:32:29;;;;;;;0.00;0.00;;;;;;;16.07;100.00;101708.63;5075620;28;20032;-45
2023/09/02 00:34:54;;;;;;;0.25;0.25;;;;;;;16.03;100.00;101707.31;5071973;28;20420;-48
2023/09/02 00:37:19;;;;;;;0.00;0.00;;;;;;;16.02;100.00;101711.91;5071618;28;20031;-48
2023/09/02 00:39:45;;;;;;;1.38;1.05;;;;;;;16.10;100.00;101705.50;5081617;28;20470;-47
2023/09/02 00:42:12;;;;;;;0.10;0.10;;;;;;;16.09;100.00;101705.69;5077371;28;20040;-50
2023/09/02 00:44:37;;;;;;;0.22;0.22;;;;;;;16.07;100.00;101702.34;5054555;28;20036;-47
2023/09/02 00:47:03;;;;;;;1.55;1.38;;;;;;;16.04;100.00;101698.16;5071974;28;20037;-47
2023/09/02 00:49:28;;;;;;;0.95;0.85;;;;;;;16.04;100.00;101705.47;5071858;28;20035;-48
2023/09/02 00:51:54;;;;;;;0.98;0.88;;;;;;;15.98;100.00;101702.50;5073660;28;20032;-48
2023/09/02 00:54:19;;;;;;;4.30;2.70;;;;;;;15.92;100.00;101699.72;5078965;28;20498;-47
2023/09/02 00:56:45;;;;;;;0.90;0.82;;;;;;;15.88;100.00;101712.00;5076304;28;20028;-48
2023/09/02 00:59:11;;;;;;;0.10;0.10;;;;;;;15.90;100.00;101708.03;5058515;28;20036;-49
2023/09/02 01:01:40;;;;;;;0.25;0.22;;;;;;;15.91;100.00;101707.03;5072315;28;20041;-46
2023/09/02 01:04:05;;;;;;;0.05;0.05;;;;;;;15.91;100.00;101708.91;5053740;28;20105;-48
2023/09/02 01:06:31;;;;;;;0.20;0.20;;;;;;;15.91;100.00;101712.44;5053519;28;20067;-45
2023/09/02 01:08:57;;;;;;;0.30;0.30;;;;;;;15.92;100.00;101711.41;5053665;28;20043;-49
2023/09/02 01:11:22;;;;;;;0.00;0.00;;;;;;;15.92;100.00;101710.56;5071426;28;20033;-49
2023/09/02 01:13:48;;;;;;;0.30;0.30;;;;;;;15.90;100.00;101708.03;5071485;28;20039;-48
2023/09/02 01:16:13;;;;;;;0.10;0.10;;;;;;;15.88;100.00;101710.13;5086457;28;20028;-48
2023/09/02 01:18:39;;;;;;;0.00;0.00;;;;;;;15.86;100.00;101712.19;5071222;28;20033;-50
2023/09/02 01:21:16;;;;;;;0.20;0.20;;;;;;;15.88;100.00;101725.59;5083925;28;20035;-51
2023/09/02 01:23:45;;;;;;;;;;;;;;;15.92;100.00;101724.97;5072587;28;20035;-51
2023/09/02 01:26:22;;;;;;;0.08;0.08;;;;;;;15.95;100.00;101715.59;5075835;28;19920;-48
2023/09/02 01:28:48;;;;;;;0.13;0.13;;;;;;;15.93;100.00;101717.66;5071468;28;20024;-47
2023/09/02 01:31:16;;;;;;;1.02;0.75;;;;;;;15.91;100.00;101717.06;5071042;28;20040;-49
2023/09/02 01:33:41;;;;;;;;;;;;;;;15.82;100.00;101719.03;5071611;28;20032;-51
2023/09/02 01:36:07;;;;;;;0.30;0.27;;;;;;;15.79;100.00;101724.88;5053198;28;19913;-46
2023/09/02 01:38:33;;;;;;;0.10;0.10;;;;;;;15.76;100.00;101723.38;5053981;28;20290;-48
2023/09/02 01:41:02;;;;;;;0.32;0.32;;;;;;;15.75;100.00;101727.13;5076231;28;20033;-49
2023/09/02 01:43:29;;;;;;;0.10;0.10;;;;;;;15.79;100.00;101733.00;5049044;28;20036;-48
2023/09/02 01:45:56;;;;;;;0.00;0.00;;;;;;;15.85;100.00;101737.69;5053633;28;20040;-49
2023/09/02 01:48:23;;;;;;;0.00;0.00;;;;;;;15.88;100.00;101739.16;5052673;28;20055;-48
2023/09/02 01:50:50;;;;;;;0.08;0.08;;;;;;;15.90;100.00;101737.91;5053050;28;20510;-46
2023/09/02 01:53:15;;;;;;;2.38;1.45;;;;;;;15.94;100.00;101725.63;5074428;28;20052;-48
2023/09/02 01:55:41;;;;;;;0.00;0.00;;;;;;;15.94;100.00;101736.50;5052728;28;20016;-50
2023/09/02 01:58:06;;;;;;;0.10;0.10;;;;;;;15.93;100.00;101740.25;5071202;28;20589;-47
2023/09/02 02:00:32;;;;;;;0.03;0.00;;;;;;;15.95;100.00;101742.75;5083132;28;20026;-47
2023/09/02 02:02:59;;;;;;;0.20;0.20;;;;;;;15.98;100.00;101745.94;5086171;28;20104;-46
2023/09/02 02:05:32;;;;;;;0.57;0.35;;;;;;;15.98;100.00;101751.38;5079468;28;20102;-47
2023/09/02 02:08:03;;;;;;;2.90;2.03;;;;;;;15.91;100.00;101747.75;5084987;28;20025;-50
2023/09/02 02:10:29;;;;;;;0.40;0.17;;;;;;;15.89;100.00;101749.81;5070526;28;20020;-51
2023/09/02 02:12:55;;;;;;;3.05;2.05;;;;;;;15.89;100.00;101752.53;5076123;28;20103;-48
2023/09/02 02:15:20;;;;;;;0.70;0.70;;;;;;;15.88;100.00;101748.13;5067543;28;20062;-50
2023/09/02 02:17:45;;;;;;;1.08;0.98;;;;;;;15.81;100.00;101747.22;5094450;28;20105;-48
2023/09/02 02:20:11;;;;;;;1.67;1.15;;;;;;;15.79;100.00;101754.72;5091303;28;20493;-49
2023/09/02 02:22:36;;;;;;;0.77;0.52;;;;;;;15.79;100.00;101760.16;5074450;28;20033;-50
2023/09/02 02:25:02;;;;;;;1.00;0.77;;;;;;;15.79;100.00;101752.00;5079371;28;20028;-46
2023/09/02 02:27:27;;;;;;;2.42;1.80;;;;;;;15.82;100.00;101765.19;5085515;28;20037;-45
2023/09/02 02:29:53;;;;;;;1.73;1.27;;;;;;;15.79;100.00;101760.16;5073887;28;20039;-46
2023/09/02 02:32:19;;;;;;;0.88;0.75;;;;;;;15.82;100.00;101759.75;5073874;28;20111;-47
2023/09/02 02:34:44;;;;;;;1.15;0.90;;;;;;;15.74;100.00;101763.44;5073905;28;20016;-46
2023/09/02 02:37:10;;;;;;;0.28;0.25;;;;;;;15.71;100.00;101761.13;5073630;28;20036;-48
2023/09/02 02:39:35;;;;;;;0.10;0.10;;;;;;;15.78;100.00;101753.06;5073326;28;20036;-46
2023/09/02 02:42:00;;;;;;;0.52;0.50;;;;;;;15.80;100.00;101753.69;5074062;28;20024;-48
2023/09/02 02:44:26;;;;;;;0.15;0.15;;;;;;;15.82;100.00;101759.75;5074318;28;20059;-49
2023/09/02 02:46:51;;;;;;;0.00;0.00;;;;;;;15.86;100.00;101752.09;5073549;28;20032;-47
2023/09/02 02:49:16;;;;;;;0.20;0.17;;;;;;;15.90;100.00;101756.91;5073862;28;20135;-47
2023/09/02 02:51:42;;;;;;;0.25;0.20;;;;;;;15.98;100.00;101756.78;5073462;28;20111;-47
2023/09/02 02:54:07;;;;;;;0.90;0.75;;;;;;;15.98;100.00;101754.09;5073661;28;20036;-48
2023/09/02 02:56:33;;;;;;;1.08;0.73;;;;;;;15.99;100.00;101746.78;5073548;28;20032;-48
2023/09/02 02:58:59;;;;;;;0.00;0.00;;;;;;;15.95;100.00;101750.91;5080733;28;20149;-47
2023/09/02 03:01:24;;;;;;;0.70;0.60;;;;;;;15.98;100.00;101754.09;5085747;28;20086;-50
2023/09/02 03:03:50;;;;;;;0.00;0.00;;;;;;;15.98;100.00;101758.66;5074400;28;20578;-50
2023/09/02 03:06:19;;;;;;;1.08;0.88;;;;;;;15.94;100.00;101763.63;5082509;28;20063;-49
2023/09/02 03:08:45;;;;;;;0.30;0.28;;;;;;;15.91;100.00;101764.03;5080259;28;20029;-49
2023/09/02 03:11:10;;;;;;;0.05;0.05;;;;;;;15.98;100.00;101764.94;5085089;28;20024;-49
2023/09/02 03:13:36;;;;;;;0.98;0.60;;;;;;;16.02;100.00;101754.53;5078363;28;20578;-48
2023/09/02 03:16:02;;;;;;;0.20;0.20;;;;;;;16.03;100.00;101761.63;5072423;28;20027;-51
2023/09/02 03:18:28;;;;;;;0.10;0.10;;;;;;;16.06;100.00;101761.25;5075481;28;20028;-48
2023/09/02 03:20:53;;;;;;;0.20;0.20;;;;;;;16.05;100.00;101762.28;5081442;28;20032;-45
2023/09/02 03:23:19;;;;;;;0.32;0.20;;;;;;;16.05;100.00;101770.41;5072288;28;20048;-50
2023/09/02 03:25:44;;;;;;;1.67;1.17;;;;;;;16.02;100.00;101771.66;5072573;28;20078;-47
2023/09/02 03:28:12;;;;;;;1.05;0.93;;;;;;;16.01;100.00;101764.53;5074429;28;20074;-47
2023/09/02 03:30:37;;;;;;;1.33;1.23;;;;;;;15.96;100.00;101767.00;5088616;28;20043;-47
2023/09/02 03:33:03;;;;;;;1.90;1.42;;;;;;;15.92;100.00;101760.28;5081759;28;20036;-45
2023/09/02 03:35:29;;;;;;;0.95;0.68;;;;;;;16.03;100.00;101758.91;5084208;28;20039;-46
2023/09/02 03:37:54;;;;;;;0.45;0.45;;;;;;;16.06;100.00;101765.81;5074464;28;20129;-49
2023/09/02 03:40:19;;;;;;;0.00;0.00;;;;;;;16.01;100.00;101772.69;5076101;28;20024;-48
2023/09/02 03:42:45;;;;;;;0.35;0.30;;;;;;;15.99;100.00;101771.22;5092664;28;20036;-50
2023/09/02 03:45:10;;;;;;;0.20;0.10;;;;;;;15.97;100.00;101770.56;5079025;28;20063;-50
2023/09/02 03:47:36;;;;;;;0.10;0.10;;;;;;;15.90;100.00;101767.75;5066269;28;20051;-49
2023/09/02 03:50:03;;;;;;;1.17;0.95;;;;;;;15.87;100.00;101772.75;5079253;28;20040;-47
2023/09/02 03:52:28;;;;;;;1.10;0.90;;;;;;;15.82;100.00;101765.19;5075344;28;20441;-51
2023/09/02 03:54:54;;;;;;;0.00;0.00;;;;;;;15.82;100.00;101778.75;5072224;28;20061;-48
2023/09/02 03:57:19;;;;;;;0.10;0.00;;;;;;;15.83;100.00;101775.03;5083660;28;20032;-46
2023/09/02 03:59:44;;;;;;;0.03;0.03;;;;;;;15.91;100.00;101776.78;5072578;28;20035;-49
2023/09/02 04:02:10;;;;;;;0.30;0.30;;;;;;;15.90;100.00;101778.63;5054048;28;20055;-47
2023/09/02 04:04:35;;;;;;;0.32;0.32;;;;;;;15.91;100.00;101780.31;5072284;28;20654;-45
2023/09/02 04:07:01;;;;;;;0.63;0.63;;;;;;;15.98;100.00;101781.22;5071020;28;20028;-48
2023/09/02 04:09:27;;;;;;;0.43;0.40;;;;;;;15.92;100.00;101787.41;5070851;28;20097;-48
2023/09/02 04:11:53;;;;;;;0.28;0.28;;;;;;;15.83;100.00;101783.16;5070641;28;20461;-47
2023/09/02 04:14:18;;;;;;;0.00;0.00;;;;;;;15.84;100.00;101786.72;5071187;28;20024;-48
2023/09/02 04:16:43;;;;;;;0.10;0.10;;;;;;;15.81;100.00;101785.22;5070395;28;20040;-48
2023/09/02 04:19:09;;;;;;;0.98;0.95;;;;;;;15.83;100.00;101777.75;5070776;28;20044;-49
2023/09/02 04:21:34;;;;;;;1.45;1.23;;;;;;;15.83;100.00;101777.75;5070582;28;20032;-49
2023/09/02 04:24:00;;;;;;;0.30;0.30;;;;;;;15.85;100.00;101786.53;5069743;28;20044;-49
2023/09/02 04:26:25;;;;;;;0.00;0.00;;;;;;;15.74;100.00;101803.31;5070801;28;20028;-47
2023/09/02 04:28:52;;;;;;;1.60;1.50;;;;;;;15.69;100.00;101792.19;5070750;28;20032;-48
2023/09/02 04:31:18;;;;;;;0.40;0.40;;;;;;;15.66;100.00;101797.97;5056617;28;20428;-46
2023/09/02 04:33:43;;;;;;;0.10;0.10;;;;;;;15.69;100.00;101803.03;5069781;28;20082;-47
2023/09/02 04:36:08;;;;;;;0.13;0.13;;;;;;;15.74;100.00;101806.03;5081002;28;20028;-48
2023/09/02 04:38:34;;;;;;;0.40;0.40;;;;;;;15.86;100.00;101819.94;5080004;28;20064;-47
2023/09/02 04:41:05;;;;;;;0.00;0.00;;;;;;;15.82;100.00;101816.75;5070160;28;20033;-45
2023/09/02 04:43:30;;;;;;;0.43;0.32;;;;;;;15.86;100.00;101815.34;5080013;28;20028;-46
2023/09/02 04:46:00;;;;;;;0.40;0.30;;;;;;;15.84;100.00;101816.56;5074630;28;20139;-47
2023/09/02 04:48:25;;;;;;;0.47;0.47;;;;;;;15.80;100.00;101813.41;5063441;28;20451;-46
2023/09/02 04:50:53;;;;;;;0.20;0.20;;;;;;;15.78;100.00;101819.03;5074876;28;20048;-50
2023/09/02 04:53:19;;;;;;;0.13;0.10;;;;;;;15.79;100.00;101819.88;5077992;28;20551;-49
2023/09/02 04:55:44;;;;;;;0.80;0.73;;;;;;;15.83;100.00;101825.78;5070531;28;20095;-50
2023/09/02 04:58:09;;;;;;;0.63;0.50;;;;;;;15.86;100.00;101826.22;5069645;28;20098;-49
2023/09/02 05:00:35;;;;;;;0.05;0.05;;;;;;;15.88;100.00;101824.16;5066609;28;20024;-50
2023/09/02 05:03:01;;;;;;;0.43;0.43;;;;;;;15.89;100.00;101824.97;5070378;28;20191;-45
2023/09/02 05:05:29;;;;;;;0.17;0.03;;;;;;;15.83;100.00;101823.88;5085016;28;20028;-47
2023/09/02 05:07:54;;;;;;;0.00;0.00;;;;;;;15.80;100.00;101827.00;5070210;28;20038;-47
2023/09/02 05:10:20;;;;;;;0.30;0.30;;;;;;;15.77;100.00;101827.34;5070129;28;20036;-46
2023/09/02 05:12:45;;;;;;;0.45;0.35;;;;;;;15.74;100.00;101823.16;5070266;28;20093;-49
2023/09/02 05:15:10;;;;;;;0.00;0.00;;;;;;;15.72;100.00;101818.97;5070307;28;20106;-44
2023/09/02 05:17:36;;;;;;;0.43;0.38;;;;;;;15.74;100.00;101817.72;5076489;28;20328;-47
2023/09/02 05:20:03;;;;;;;0.00;0.00;;;;;;;15.68;100.00;101820.34;5073574;28;20036;-45
2023/09/02 05:22:29;;;;;;;0.45;0.43;;;;;;;15.68;100.00;101815.75;5086214;28;20028;-49
2023/09/02 05:24:54;;;;;;;0.10;0.10;;;;;;;15.72;100.00;101816.25;5080364;28;20570;-46
2023/09/02 05:27:20;;;;;;;0.20;0.17;;;;;;;15.64;100.00;101828.03;5069567;28;20025;-49
2023/09/02 05:29:45;;;;;;;0.75;0.55;;;;;;;15.51;100.00;101831.44;5071843;28;20059;-46
2023/09/02 05:32:12;;;;;;;0.00;0.00;;;;;;;15.51;100.00;101845.00;5076213;28;20146;-50
2023/09/02 05:34:37;;;;;;;0.30;0.30;;;;;;;15.46;100.00;101847.44;5075857;28;20389;-50
2023/09/02 05:37:03;;;;;;;0.45;0.30;;;;;;;15.42;100.00;101848.00;5069643;28;20765;-48
2023/09/02 05:39:28;;;;;;;0.00;0.00;;;;;;;15.45;100.00;101853.88;5067578;28;20031;-46
2023/09/02 05:41:54;;;;;;;0.20;0.20;;;;;;;15.46;100.00;101858.28;5067822;28;20379;-48
2023/09/02 05:44:19;;;;;;;0.30;0.30;;;;;;;15.42;100.00;101856.97;5060105;28;20065;-48
2023/09/02 05:46:44;;;;;;;1.40;1.13;;;;;;;15.43;100.00;101855.97;5073078;28;20028;-50
2023/09/02 05:49:10;;;;;;;0.75;0.68;;;;;;;15.45;100.00;101856.59;5077455;28;20376;-48
2023/09/02 05:51:36;;;;;;;0.32;0.32;;;;;;;15.46;100.00;101858.28;5073229;28;20046;-47
2023/09/02 05:54:01;;;;;;;0.10;0.10;;;;;;;15.55;100.00;101857.13;5073082;28;20028;-49
2023/09/02 05:56:27;;;;;;;0.10;0.10;;;;;;;15.68;100.00;101856.47;5073277;28;20086;-47
2023/09/02 05:58:52;;;;;;;0.10;0.10;;;;;;;15.81;100.00;101858.53;5073429;28;20056;-49
2023/09/02 06:01:17;;;;;;;0.00;0.00;;;;;;;15.74;100.00;101860.31;5073310;28;20090;-49
2023/09/02 06:03:43;;;;;;;0.28;0.25;;;;;;;15.76;100.00;101855.53;5086557;28;20052;-48
2023/09/02 06:06:10;;;;;;;1.63;1.33;;;;;;;15.72;100.00;101859.69;5084271;28;20127;-49
2023/09/02 06:08:35;;;;;;;0.00;0.00;;;;;;;15.74;100.00;101871.16;5082975;28;20462;-47
2023/09/02 06:11:01;;;;;;;0.00;0.00;;;;;;;15.79;100.00;101869.56;5072103;28;20039;-47
2023/09/02 06:13:27;;;;;;;0.10;0.10;;;;;;;15.85;100.00;101876.13;5074708;28;20024;-47
2023/09/02 06:15:57;;;;;;;0.00;0.00;;;;;;;15.92;100.00;101884.31;5074422;28;20498;-48
2023/09/02 06:18:23;;;;;;;0.00;0.00;;;;;;;15.94;100.00;101890.41;5091922;28;20051;-47
2023/09/02 06:20:48;;;;;;;0.00;0.00;;;;;;;16.05;100.00;101894.50;5077485;28;20033;-48
2023/09/02 06:23:13;;;;;;;0.00;0.00;;;;;;;16.09;100.00;101910.22;5061297;28;20028;-47
2023/09/02 06:25:39;;;;;;;0.40;0.30;;;;;;;16.08;100.00;101910.41;5074029;28;20103;-47
2023/09/02 06:28:04;;;;;;;0.10;0.10;;;;;;;16.00;100.00;101912.19;5075229;28;20048;-49
2023/09/02 06:30:29;;;;;;;0.10;0.10;;;;;;;16.11;100.00;101912.72;5075366;28;20032;-47
2023/09/02 06:32:55;;;;;;;0.08;0.08;;;;;;;16.18;100.00;101921.78;5074850;28;20594;-47
2023/09/02 06:35:20;;;;;;;0.20;0.20;;;;;;;16.20;100.00;101930.59;5074818;28;20056;-46
2023/09/02 06:37:46;;;;;;;0.00;0.00;;;;;;;16.19;100.00;101939.75;5080063;28;20032;-48
2023/09/02 06:40:11;;;;;;;0.00;0.00;;;;;;;16.22;100.00;101942.13;5075304;28;20021;-46
2023/09/02 06:42:37;;;;;;;0.28;0.28;;;;;;;16.26;100.00;101940.69;5086881;28;20061;-48
2023/09/02 06:45:02;;;;;;;0.35;0.30;;;;;;;16.23;100.00;101941.06;5076327;28;20068;-48
2023/09/02 06:47:28;;;;;;;0.10;0.00;;;;;;;16.23;100.00;101941.06;5073894;28;20021;-49
2023/09/02 06:49:53;;;;;;;0.20;0.20;;;;;;;16.23;100.00;101946.50;5074112;28;20206;-47
2023/09/02 06:52:19;;;;;;;0.20;0.20;;;;;;;16.20;100.00;101946.88;5073593;28;20040;-46
2023/09/02 06:54:48;;;;;;;0.22;0.22;;;;;;;16.19;100.00;101951.47;5073582;28;20032;-46
2023/09/02 06:57:14;;;;;;;0.00;0.00;;;;;;;16.17;100.00;101950.00;5073262;28;20039;-48
2023/09/02 06:59:39;;;;;;;0.05;0.00;;;;;;;16.15;100.00;101943.91;5073333;28;20032;-49
2023/09/02 07:02:05;;;;;;;0.17;0.17;;;;;;;16.19;100.00;101951.47;5073340;28;20096;-48
2023/09/02 07:04:30;;;;;;;0.00;0.00;;;;;;;16.14;100.00;101947.63;5073421;28;20020;-47
2023/09/02 07:06:56;;;;;;;0.63;0.45;;;;;;;16.16;100.00;101956.44;5073594;28;20120;-46
2023/09/02 07:09:21;;;;;;;0.00;0.00;;;;;;;16.17;100.00;101958.13;5073260;28;20036;-46
2023/09/02 07:11:46;;;;;;;0.00;0.00;;;;;;;16.28;100.00;101964.94;5067318;28;20028;-49
2023/09/02 07:14:12;;;;;;;0.10;0.10;;;;;;;16.40;100.00;101969.69;5052765;28;20017;-48
2023/09/02 07:16:37;;;;;;;0.10;0.10;;;;;;;16.49;100.00;101975.81;5053737;28;20055;-47
2023/09/02 07:19:03;;;;;;;0.03;0.03;;;;;;;16.57;100.00;101977.56;5053044;28;20527;-46
2023/09/02 07:21:29;;;;;;;0.22;0.20;;;;;;;16.69;100.00;101989.59;5053215;28;20127;-47
2023/09/02 07:23:54;;;;;;;0.30;0.30;;;;;;;16.76;100.00;101993.22;5053123;28;20113;-48
2023/09/02 07:26:19;;;;;;;0.57;0.43;;;;;;;16.75;100.00;101999.72;5053131;28;20029;-48
2023/09/02 07:28:45;;;;;;;0.00;0.00;;;;;;;16.71;100.00;101997.56;5052942;28;20033;-46
2023/09/02 07:31:10;;;;;;;0.85;0.70;;;;;;;16.65;100.00;101994.59;5052888;28;20048;-51
2023/09/02 07:33:36;;;;;;;0.00;0.00;;;;;;;16.72;100.00;102005.53;5053034;28;20463;-47
2023/09/02 07:36:12;;;;;;;0.00;0.00;;;;;;;16.67;100.00;102008.84;5052887;28;20029;-48
2023/09/02 07:38:39;;;;;;;0.10;0.10;;;;;;;16.75;100.00;102010.59;5052697;28;20078;-49
2023/09/02 07:41:04;;;;;;;0.00;0.00;;;;;;;16.79;100.00;102016.50;5052324;28;20084;-49
2023/09/02 07:43:30;;;;;;;0.03;0.00;;;;;;;16.96;100.00;102019.81;5051939;28;20052;-49
2023/09/02 07:45:55;;;;;;;0.10;0.10;;;;;;;16.97;100.00;102025.03;5052534;28;20029;-47
2023/09/02 07:48:21;;;;;;;0.15;0.13;;;;;;;16.97;100.00;102029.63;5052767;28;20033;-48
2023/09/02 07:50:47;;;;;;;0.00;0.00;;;;;;;17.03;100.00;102031.56;5052546;28;20029;-48
2023/09/02 07:53:13;;;;;;;0.00;0.00;;;;;;;17.06;100.00;102034.75;5052991;28;20451;-46
2023/09/02 07:55:38;;;;;;;0.00;0.00;;;;;;;17.08;100.00;102035.38;5053240;28;20101;-47
2023/09/02 07:58:04;;;;;;;0.00;0.00;;;;;;;17.17;100.00;102033.38;5053123;28;20029;-48
2023/09/02 08:00:30;;;;;;;0.00;0.00;;;;;;;17.28;100.00;102034.72;5052444;28;20032;-46
2023/09/02 08:02:57;;;;;;;0.00;0.00;;;;;;;17.32;100.00;102039.56;5052299;28;20052;-48
2023/09/02 08:05:23;;;;;;;0.00;0.00;;;;;;;17.40;100.00;102040.44;5052080;28;20087;-49
2023/09/02 08:07:48;;;;;;;0.00;0.00;;;;;;;17.58;100.00;102035.34;5052263;28;20028;-51
2023/09/02 08:10:13;;;;;;;0.00;0.00;;;;;;;17.71;100.00;102034.59;5051398;28;20033;-49
2023/09/02 08:12:39;;;;;;;0.00;0.00;;;;;;;17.84;100.00;102039.31;5051877;28;20032;-48
2023/09/02 08:15:05;;;;;;;0.00;0.00;;;;;;;17.82;100.00;102035.94;5052051;28;20025;-47
2023/09/02 08:17:35;;;;;;;0.00;0.00;;;;;;;17.86;100.00;102029.91;5052101;28;20375;-52
2023/09/02 08:20:01;;;;;;;0.00;0.00;;;;;;;17.94;100.00;102027.00;5052039;28;20051;-48
2023/09/02 08:22:26;;;;;;;0.00;0.00;;;;;;;17.91;100.00;102026.56;5051906;28;20021;-48
2023/09/02 08:24:51;;;;;;;0.00;0.00;;;;;;;18.02;100.00;102028.72;5033933;28;20086;-50
2023/09/02 08:27:17;;;;;;;0.00;0.00;;;;;;;18.16;100.00;102027.72;5051221;28;20048;-51
2023/09/02 08:29:42;;;;;;;0.00;0.00;;;;;;;18.19;100.00;102021.88;5051798;28;20060;-48
2023/09/02 08:32:07;;;;;;;0.00;0.00;;;;;;;18.28;100.00;101999.91;5052145;28;20113;-48
2023/09/02 08:34:33;;;;;;;0.00;0.00;;;;;;;18.54;100.00;101999.97;5052025;28;20067;-51
2023/09/02 08:36:59;;;;;;;0.00;0.00;;;;;;;18.84;100.00;102007.78;5051184;28;20452;-47
2023/09/02 08:39:24;;;;;;;0.00;0.00;;;;;;;19.04;100.00;102016.84;5051597;28;20033;-46
2023/09/02 08:41:49;;;;;;;0.00;0.00;;;;;;;19.16;100.00;102018.94;5051438;28;20021;-48
2023/09/02 08:44:16;;;;;;;0.00;0.00;;;;;;;19.37;100.00;102026.06;5034194;28;20029;-48
2023/09/02 08:46:44;;;;;;;0.00;0.00;;;;;;;19.56;100.00;102014.25;5051651;28;20092;-47
2023/09/02 08:49:11;;;;;;;0.00;0.00;;;;;;;19.74;100.00;102008.16;5051846;28;20075;-49
2023/09/02 08:51:36;;;;;;;0.00;0.00;;;;;;;19.49;100.00;102000.63;5051647;28;20017;-48
2023/09/02 08:54:01;;;;;;;0.00;0.00;;;;;;;19.43;100.00;101997.88;5051755;28;20511;-48
2023/09/02 08:56:27;;;;;;;0.00;0.00;;;;;;;19.48;100.00;102001.69;5068103;28;20140;-46
2023/09/02 08:58:53;;;;;;;0.00;0.00;;;;;;;20.03;100.00;102025.91;5053592;28;20025;-48
2023/09/02 09:01:20;;;;;;;0.00;0.00;;;;;;;20.68;100.00;102031.31;5078115;28;20021;-49
2023/09/02 09:03:50;;;;;;;0.00;0.00;;;;;;;20.90;100.00;102020.81;5072263;28;20098;-48
2023/09/02 09:06:16;;;;;;;0.00;0.00;;;;;;;21.02;100.00;102007.28;5064260;28;20036;-49
2023/09/02 09:08:42;;;;;;;0.00;0.00;;;;;;;21.29;100.00;102018.00;5090666;28;20036;-49
2023/09/02 09:11:09;;;;;;;0.00;0.00;;;;;;;22.46;100.00;102006.97;5083423;28;20043;-49
2023/09/02 09:13:36;;;;;;;0.00;0.00;;;;;;;23.52;100.00;101976.94;5068916;28;20024;-52
2023/09/02 09:16:02;;;;;;;0.00;0.00;;;;;;;24.26;100.00;101988.94;5068741;28;20024;-50
2023/09/02 09:18:28;;;;;;;0.00;0.00;;;;;;;23.90;100.00;101989.31;5070515;28;20036;-47
2023/09/02 09:20:53;;;;;;;0.00;0.00;;;;;;;23.59;100.00;101989.47;5086071;28;20017;-47
2023/09/02 09:23:19;;;;;;;0.00;0.00;;;;;;;22.90;100.00;101991.94;5065832;28;20039;-47
2023/09/02 09:25:49;;;;;;;0.00;0.00;;;;;;;22.41;100.00;102004.06;5081728;28;20032;-49
2023/09/02 09:28:14;;;;;;;0.00;0.00;;;;;;;21.89;100.00;102010.84;5094644;28;20063;-48
2023/09/02 09:30:39;;;;;;;0.00;0.00;;;;;;;21.68;100.00;102014.88;5094048;28;20462;-49
2023/09/02 09:33:05;;;;;;;0.00;0.00;;;;;;;21.36;100.00;102016.03;5086929;28;20091;-51
2023/09/02 09:35:35;;;;;;;0.00;0.00;;;;;;;21.17;100.00;102020.59;5073678;28;20033;-48
2023/09/02 09:38:01;;;;;;;0.00;0.00;;;;;;;21.07;100.00;102026.59;5086731;28;20478;-50
2023/09/02 09:40:34;;;;;;;0.00;0.00;;;;;;;21.26;100.00;102031.06;5094023;28;20092;-46
2023/09/02 09:43:01;;;;;;;0.00;0.00;;;;;;;21.38;100.00;102027.59;5092201;28;20028;-50
2023/09/02 09:45:27;;;;;;;0.00;0.00;;;;;;;21.53;100.00;102030.84;5073787;28;20454;-51
2023/09/02 09:47:56;;;;;;;0.00;0.00;;;;;;;21.62;100.00;102040.44;5077096;28;20039;-49
2023/09/02 09:50:21;;;;;;;0.00;0.00;;;;;;;21.69;100.00;102045.84;5057179;28;20036;-47
2023/09/02 09:53:01;;;;;;;0.00;0.00;;;;;;;21.71;100.00;102054.69;5055666;28;20043;-49
2023/09/02 09:55:29;;;;;;;0.00;0.00;;;;;;;21.67;100.00;102053.47;5073549;28;20025;-48
2023/09/02 09:57:55;;;;;;;0.00;0.00;;;;;;;21.65;100.00;102064.66;5073461;28;20642;-49
2023/09/02 10:00:21;;;;;;;0.00;0.00;;;;;;;21.52;100.00;102067.53;5073424;28;20382;-50
2023/09/02 10:02:53;;;;;;;0.00;0.00;;;;;;;21.40;100.00;102066.56;5073240;28;20052;-48
2023/09/02 10:05:32;;;;;;;0.00;0.00;;;;;;;21.27;100.00;102065.63;5074833;28;20378;-50
2023/09/02 10:08:06;;;;;;;0.00;0.00;;;;;;;21.40;100.00;102069.31;5057913;28;20487;-49
2023/09/02 10:10:35;;;;;;;0.00;0.00;;;;;;;21.29;100.00;102068.09;5070316;28;20111;-50
2023/09/02 10:13:01;;;;;;;0.00;0.00;;;;;;;21.22;100.00;102068.19;5052133;28;20063;-50
2023/09/02 10:15:27;;;;;;;0.00;0.00;;;;;;;21.29;100.00;102073.59;5061637;28;20464;-49
2023/09/02 10:18:03;;;;;;;0.00;0.00;;;;;;;21.51;100.00;102075.94;5073047;28;20081;-48
2023/09/02 10:20:30;;;;;;;0.00;0.00;;;;;;;22.12;100.00;102073.19;5073066;28;20028;-48
2023/09/02 10:23:08;;;;;;;0.00;0.00;;;;;;;22.37;100.00;102072.28;5072811;28;20028;-49
2023/09/02 10:25:56;;;;;;;0.00;0.00;;;;;;;22.35;100.00;102071.69;5073336;28;20040;-48
2023/09/02 10:28:32;;;;;;;0.00;0.00;;;;;;;22.59;100.00;102067.13;5066307;28;20056;-49
2023/09/02 10:30:58;;;;;;;0.00;0.00;;;;;;;22.82;100.00;102062.81;5072922;28;20060;-50
2023/09/02 10:33:38;;;;;;;0.00;0.00;;;;;;;22.73;100.00;102060.41;5070548;28;20033;-50
2023/09/02 10:36:05;;;;;;;0.00;0.00;;;;;;;22.90;100.00;102060.56;5093211;28;20043;-49
2023/09/02 10:38:37;;;;;;;0.00;0.00;;;;;;;23.23;100.00;102059.22;5080984;28;20027;-46
2023/09/02 10:41:12;;;;;;;0.00;0.00;;;;;;;23.32;100.00;102055.03;5072826;28;20425;-49
2023/09/02 10:43:39;;;;;;;0.00;0.00;;;;;;;23.17;100.00;102054.66;5074509;28;20020;-48
2023/09/02 10:46:05;;;;;;;0.00;0.00;;;;;;;22.90;100.00;102056.97;5076990;28;20039;-49
2023/09/02 10:48:31;;;;;;;0.00;0.00;;;;;;;22.60;100.00;102065.25;5074547;28;20083;-52
2023/09/02 10:50:57;;;;;;;0.00;0.00;;;;;;;22.32;100.00;102066.66;5094291;28;20020;-48
2023/09/02 10:53:50;;;;;;;0.00;0.00;;;;;;;22.29;100.00;102073.44;5088536;28;20025;-50
2023/09/02 10:56:30;;;;;;;0.00;0.00;;;;;;;22.15;100.00;102074.66;5072930;28;20044;-48
2023/09/02 10:58:57;;;;;;;0.00;0.00;;;;;;;21.92;100.00;102078.91;5073743;28;20479;-48
2023/09/02 11:01:23;;;;;;;0.00;0.00;;;;;;;22.04;100.00;102087.22;5073294;28;20024;-47
2023/09/02 11:03:51;;;;;;;0.00;0.00;;;;;;;22.14;100.00;102086.66;5072760;28;20074;-48
2023/09/02 11:06:17;;;;;;;;;;;;;;;22.24;100.00;102091.66;5074609;28;20429;-48
2023/09/02 11:08:46;;;;;;;0.00;0.00;;;;;;;22.41;100.00;102080.88;5073584;28;19913;-50
2023/09/02 11:11:12;;;;;;;0.00;0.00;;;;;;;22.49;100.00;102083.34;5073114;28;20120;-50
2023/09/02 11:14:05;;;;;;;0.00;0.00;;;;;;;22.62;100.00;102076.81;5073281;28;20103;-52